sensor_id;sensor_type;location;lat;lon;timestamp;temperature;humidity
11399;DHT22;5755;48.116;11.608;2022-07-23T00:00:26;23.50;52.10
11399;DHT22;5755;48.116;11.608;2022-07-23T00:02:56;23.50;51.70
11399;DHT22;5755;48.116;11.608;2022-07-23T00:05:24;23.40;50.70
11399;DHT22;5755;48.116;11.608;2022-07-23T00:07:51;23.30;50.70
11399;DHT22;5755;48.116;11.608;2022-07-23T00:10:18;23.30;51.20
11399;DHT22;5755;48.116;11.608;2022-07-23T00:12:45;23.30;52.10
11399;DHT22;5755;48.116;11.608;2022-07-23T00:15:12;23.30;51.20
11399;DHT22;5755;48.116;11.608;2022-07-23T00:17:39;23.30;52.00
11399;DHT22;5755;48.116;11.608;2022-07-23T00:20:07;23.20;52.20
11399;DHT22;5755;48.116;11.608;2022-07-23T00:22:35;23.10;50.30
11399;DHT22;5755;48.116;11.608;2022-07-23T00:25:02;23.10;50.40
11399;DHT22;5755;48.116;11.608;2022-07-23T00:27:29;23.00;51.10
11399;DHT22;5755;48.116;11.608;2022-07-23T00:29:56;22.90;52.10
11399;DHT22;5755;48.116;11.608;2022-07-23T00:32:23;23.00;52.40
11399;DHT22;5755;48.116;11.608;2022-07-23T00:34:50;22.90;51.50
11399;DHT22;5755;48.116;11.608;2022-07-23T00:37:17;22.90;53.00
11399;DHT22;5755;48.116;11.608;2022-07-23T00:39:45;22.80;51.60
11399;DHT22;5755;48.116;11.608;2022-07-23T00:42:12;22.80;52.50
11399;DHT22;5755;48.116;11.608;2022-07-23T00:44:39;22.80;52.30
11399;DHT22;5755;48.116;11.608;2022-07-23T00:47:06;22.80;49.00
11399;DHT22;5755;48.116;11.608;2022-07-23T00:49:32;22.80;49.40
11399;DHT22;5755;48.116;11.608;2022-07-23T00:52:01;22.90;48.80
11399;DHT22;5755;48.116;11.608;2022-07-23T00:54:29;22.90;51.50
11399;DHT22;5755;48.116;11.608;2022-07-23T00:56:57;23.00;50.00
11399;DHT22;5755;48.116;11.608;2022-07-23T00:59:34;23.00;50.00
11399;DHT22;5755;48.116;11.608;2022-07-23T01:02:01;23.00;50.60
11399;DHT22;5755;48.116;11.608;2022-07-23T01:04:34;23.00;50.60
11399;DHT22;5755;48.116;11.608;2022-07-23T01:07:04;23.00;51.60
11399;DHT22;5755;48.116;11.608;2022-07-23T01:09:31;23.00;52.30
11399;DHT22;5755;48.116;11.608;2022-07-23T01:11:59;23.00;52.30
11399;DHT22;5755;48.116;11.608;2022-07-23T01:14:26;23.00;52.50
11399;DHT22;5755;48.116;11.608;2022-07-23T01:16:58;23.00;52.40
11399;DHT22;5755;48.116;11.608;2022-07-23T01:19:25;23.00;51.70
11399;DHT22;5755;48.116;11.608;2022-07-23T01:21:53;23.00;52.80
11399;DHT22;5755;48.116;11.608;2022-07-23T01:24:22;23.10;52.20
11399;DHT22;5755;48.116;11.608;2022-07-23T01:26:49;23.20;52.70
11399;DHT22;5755;48.116;11.608;2022-07-23T01:29:17;23.30;49.80
11399;DHT22;5755;48.116;11.608;2022-07-23T01:31:44;23.40;46.10
11399;DHT22;5755;48.116;11.608;2022-07-23T01:34:11;23.30;43.00
11399;DHT22;5755;48.116;11.608;2022-07-23T01:36:38;23.10;40.40
11399;DHT22;5755;48.116;11.608;2022-07-23T01:39:06;22.70;42.00
11399;DHT22;5755;48.116;11.608;2022-07-23T01:41:35;22.30;43.10
11399;DHT22;5755;48.116;11.608;2022-07-23T01:44:02;22.10;41.80
11399;DHT22;5755;48.116;11.608;2022-07-23T01:46:29;22.10;40.40
11399;DHT22;5755;48.116;11.608;2022-07-23T01:48:55;22.00;39.80
11399;DHT22;5755;48.116;11.608;2022-07-23T01:51:28;22.00;41.50
11399;DHT22;5755;48.116;11.608;2022-07-23T01:53:58;22.00;43.00
11399;DHT22;5755;48.116;11.608;2022-07-23T01:56:47;21.90;45.20
11399;DHT22;5755;48.116;11.608;2022-07-23T01:59:13;21.80;47.80
11399;DHT22;5755;48.116;11.608;2022-07-23T02:01:41;21.80;49.60
11399;DHT22;5755;48.116;11.608;2022-07-23T02:04:08;21.70;50.20
11399;DHT22;5755;48.116;11.608;2022-07-23T02:06:34;21.60;51.00
11399;DHT22;5755;48.116;11.608;2022-07-23T02:09:10;21.50;52.30
11399;DHT22;5755;48.116;11.608;2022-07-23T02:11:37;21.50;53.20
11399;DHT22;5755;48.116;11.608;2022-07-23T02:14:17;21.40;57.20
11399;DHT22;5755;48.116;11.608;2022-07-23T02:16:44;21.20;59.00
11399;DHT22;5755;48.116;11.608;2022-07-23T02:19:22;21.10;63.00
11399;DHT22;5755;48.116;11.608;2022-07-23T02:21:49;20.90;65.10
11399;DHT22;5755;48.116;11.608;2022-07-23T02:24:16;20.80;69.40
11399;DHT22;5755;48.116;11.608;2022-07-23T02:26:43;20.70;70.80
11399;DHT22;5755;48.116;11.608;2022-07-23T02:29:10;20.70;69.00
11399;DHT22;5755;48.116;11.608;2022-07-23T02:31:38;20.70;67.00
11399;DHT22;5755;48.116;11.608;2022-07-23T02:34:05;20.70;68.10
11399;DHT22;5755;48.116;11.608;2022-07-23T02:36:32;20.70;71.80
11399;DHT22;5755;48.116;11.608;2022-07-23T02:38:59;20.60;72.20
11399;DHT22;5755;48.116;11.608;2022-07-23T02:41:26;20.60;75.10
11399;DHT22;5755;48.116;11.608;2022-07-23T02:43:53;20.60;74.00
11399;DHT22;5755;48.116;11.608;2022-07-23T02:46:20;20.50;77.10
11399;DHT22;5755;48.116;11.608;2022-07-23T02:48:48;20.50;77.30
11399;DHT22;5755;48.116;11.608;2022-07-23T02:51:15;20.40;77.50
11399;DHT22;5755;48.116;11.608;2022-07-23T02:53:42;20.40;81.20
11399;DHT22;5755;48.116;11.608;2022-07-23T02:56:10;20.40;81.10
11399;DHT22;5755;48.116;11.608;2022-07-23T02:58:37;20.40;81.10
11399;DHT22;5755;48.116;11.608;2022-07-23T03:01:05;20.40;82.20
11399;DHT22;5755;48.116;11.608;2022-07-23T03:03:32;20.30;86.90
11399;DHT22;5755;48.116;11.608;2022-07-23T03:06:00;20.10;90.00
11399;DHT22;5755;48.116;11.608;2022-07-23T03:08:27;19.80;91.80
11399;DHT22;5755;48.116;11.608;2022-07-23T03:10:54;19.70;92.60
11399;DHT22;5755;48.116;11.608;2022-07-23T03:13:21;19.70;92.40
11399;DHT22;5755;48.116;11.608;2022-07-23T03:15:48;19.60;92.50
11399;DHT22;5755;48.116;11.608;2022-07-23T03:18:14;19.40;93.40
11399;DHT22;5755;48.116;11.608;2022-07-23T03:20:41;19.30;94.50
11399;DHT22;5755;48.116;11.608;2022-07-23T03:23:09;19.30;94.80
11399;DHT22;5755;48.116;11.608;2022-07-23T03:25:36;19.20;95.50
11399;DHT22;5755;48.116;11.608;2022-07-23T03:28:03;19.30;95.60
11399;DHT22;5755;48.116;11.608;2022-07-23T03:30:30;19.20;96.00
11399;DHT22;5755;48.116;11.608;2022-07-23T03:32:57;19.20;96.40
11399;DHT22;5755;48.116;11.608;2022-07-23T03:35:24;19.20;96.60
11399;DHT22;5755;48.116;11.608;2022-07-23T03:37:51;19.20;95.60
11399;DHT22;5755;48.116;11.608;2022-07-23T03:40:23;19.20;95.40
11399;DHT22;5755;48.116;11.608;2022-07-23T03:42:50;19.10;95.80
11399;DHT22;5755;48.116;11.608;2022-07-23T03:45:22;19.10;96.00
11399;DHT22;5755;48.116;11.608;2022-07-23T03:47:49;19.00;96.30
11399;DHT22;5755;48.116;11.608;2022-07-23T03:50:16;18.90;96.40
11399;DHT22;5755;48.116;11.608;2022-07-23T03:52:43;18.90;95.30
11399;DHT22;5755;48.116;11.608;2022-07-23T03:55:10;18.90;94.90
11399;DHT22;5755;48.116;11.608;2022-07-23T03:57:38;19.00;94.40
11399;DHT22;5755;48.116;11.608;2022-07-23T04:00:11;19.00;94.10
11399;DHT22;5755;48.116;11.608;2022-07-23T04:02:38;19.10;94.70
11399;DHT22;5755;48.116;11.608;2022-07-23T04:05:07;19.10;94.60
11399;DHT22;5755;48.116;11.608;2022-07-23T04:07:33;19.20;94.50
11399;DHT22;5755;48.116;11.608;2022-07-23T04:10:01;19.20;94.80
11399;DHT22;5755;48.116;11.608;2022-07-23T04:12:28;19.40;94.90
11399;DHT22;5755;48.116;11.608;2022-07-23T04:14:56;19.30;95.30
11399;DHT22;5755;48.116;11.608;2022-07-23T04:17:23;19.20;95.30
11399;DHT22;5755;48.116;11.608;2022-07-23T04:19:50;19.20;95.50
11399;DHT22;5755;48.116;11.608;2022-07-23T04:22:17;19.10;96.00
11399;DHT22;5755;48.116;11.608;2022-07-23T04:24:46;19.00;96.70
11399;DHT22;5755;48.116;11.608;2022-07-23T04:27:13;19.00;97.10
11399;DHT22;5755;48.116;11.608;2022-07-23T04:29:39;19.00;97.00
11399;DHT22;5755;48.116;11.608;2022-07-23T04:32:08;19.20;96.40
11399;DHT22;5755;48.116;11.608;2022-07-23T04:34:35;19.30;96.20
11399;DHT22;5755;48.116;11.608;2022-07-23T04:37:02;19.60;95.30
11399;DHT22;5755;48.116;11.608;2022-07-23T04:39:29;19.70;95.10
11399;DHT22;5755;48.116;11.608;2022-07-23T04:42:10;19.70;94.70
11399;DHT22;5755;48.116;11.608;2022-07-23T04:44:40;19.70;94.80
11399;DHT22;5755;48.116;11.608;2022-07-23T04:47:11;19.60;95.10
11399;DHT22;5755;48.116;11.608;2022-07-23T04:49:38;19.50;95.50
11399;DHT22;5755;48.116;11.608;2022-07-23T04:52:05;19.40;95.70
11399;DHT22;5755;48.116;11.608;2022-07-23T04:54:32;19.40;95.60
11399;DHT22;5755;48.116;11.608;2022-07-23T04:56:59;19.30;95.20
11399;DHT22;5755;48.116;11.608;2022-07-23T04:59:26;19.20;95.20
11399;DHT22;5755;48.116;11.608;2022-07-23T05:01:52;19.20;95.20
11399;DHT22;5755;48.116;11.608;2022-07-23T05:04:21;19.20;95.60
11399;DHT22;5755;48.116;11.608;2022-07-23T05:06:47;19.20;95.90
11399;DHT22;5755;48.116;11.608;2022-07-23T05:09:14;19.30;96.20
11399;DHT22;5755;48.116;11.608;2022-07-23T05:11:46;19.30;95.90
11399;DHT22;5755;48.116;11.608;2022-07-23T05:14:13;19.30;95.80
11399;DHT22;5755;48.116;11.608;2022-07-23T05:16:40;19.40;95.50
11399;DHT22;5755;48.116;11.608;2022-07-23T05:19:07;19.40;95.60
11399;DHT22;5755;48.116;11.608;2022-07-23T05:21:35;19.50;95.50
11399;DHT22;5755;48.116;11.608;2022-07-23T05:24:05;19.50;94.90
11399;DHT22;5755;48.116;11.608;2022-07-23T05:26:34;19.60;94.70
11399;DHT22;5755;48.116;11.608;2022-07-23T05:29:01;19.50;94.80
11399;DHT22;5755;48.116;11.608;2022-07-23T05:31:28;19.60;94.90
11399;DHT22;5755;48.116;11.608;2022-07-23T05:33:55;19.50;94.50
11399;DHT22;5755;48.116;11.608;2022-07-23T05:36:22;19.50;94.80
11399;DHT22;5755;48.116;11.608;2022-07-23T05:38:54;19.50;95.10
11399;DHT22;5755;48.116;11.608;2022-07-23T05:41:20;19.50;94.60
11399;DHT22;5755;48.116;11.608;2022-07-23T05:43:52;19.50;94.40
11399;DHT22;5755;48.116;11.608;2022-07-23T05:46:19;19.50;94.20
11399;DHT22;5755;48.116;11.608;2022-07-23T05:48:58;19.60;94.30
11399;DHT22;5755;48.116;11.608;2022-07-23T05:51:25;19.70;94.20
11399;DHT22;5755;48.116;11.608;2022-07-23T05:53:53;19.70;94.20
11399;DHT22;5755;48.116;11.608;2022-07-23T05:56:20;19.80;94.60
11399;DHT22;5755;48.116;11.608;2022-07-23T05:58:48;19.80;94.60
11399;DHT22;5755;48.116;11.608;2022-07-23T06:01:52;19.90;94.50
11399;DHT22;5755;48.116;11.608;2022-07-23T06:04:22;20.00;93.80
11399;DHT22;5755;48.116;11.608;2022-07-23T06:06:52;20.10;94.00
11399;DHT22;5755;48.116;11.608;2022-07-23T06:09:20;20.10;94.10
11399;DHT22;5755;48.116;11.608;2022-07-23T06:11:47;20.10;93.60
11399;DHT22;5755;48.116;11.608;2022-07-23T06:14:16;20.10;93.30
11399;DHT22;5755;48.116;11.608;2022-07-23T06:16:46;20.10;92.90
11399;DHT22;5755;48.116;11.608;2022-07-23T06:19:13;20.10;92.70
11399;DHT22;5755;48.116;11.608;2022-07-23T06:21:40;20.00;92.60
11399;DHT22;5755;48.116;11.608;2022-07-23T06:24:16;19.90;92.60
11399;DHT22;5755;48.116;11.608;2022-07-23T06:26:47;19.90;92.60
11399;DHT22;5755;48.116;11.608;2022-07-23T06:29:14;19.80;93.20
11399;DHT22;5755;48.116;11.608;2022-07-23T06:31:58;19.80;93.20
11399;DHT22;5755;48.116;11.608;2022-07-23T06:34:34;19.80;93.90
11399;DHT22;5755;48.116;11.608;2022-07-23T06:37:01;19.80;93.80
11399;DHT22;5755;48.116;11.608;2022-07-23T06:39:28;19.90;94.40
11399;DHT22;5755;48.116;11.608;2022-07-23T06:41:56;19.90;94.20
11399;DHT22;5755;48.116;11.608;2022-07-23T06:44:23;20.00;94.00
11399;DHT22;5755;48.116;11.608;2022-07-23T06:46:50;20.00;93.10
11399;DHT22;5755;48.116;11.608;2022-07-23T06:49:17;20.10;92.80
11399;DHT22;5755;48.116;11.608;2022-07-23T06:51:44;20.10;93.40
11399;DHT22;5755;48.116;11.608;2022-07-23T06:54:11;20.20;92.70
11399;DHT22;5755;48.116;11.608;2022-07-23T06:56:38;20.30;91.70
11399;DHT22;5755;48.116;11.608;2022-07-23T06:59:11;20.40;92.10
11399;DHT22;5755;48.116;11.608;2022-07-23T07:01:40;20.40;92.10
11399;DHT22;5755;48.116;11.608;2022-07-23T07:04:07;20.60;92.10
11399;DHT22;5755;48.116;11.608;2022-07-23T07:06:34;20.70;92.30
11399;DHT22;5755;48.116;11.608;2022-07-23T07:09:01;21.00;91.90
11399;DHT22;5755;48.116;11.608;2022-07-23T07:11:34;21.20;90.40
11399;DHT22;5755;48.116;11.608;2022-07-23T07:14:01;21.30;89.70
11399;DHT22;5755;48.116;11.608;2022-07-23T07:16:31;21.30;89.40
11399;DHT22;5755;48.116;11.608;2022-07-23T07:18:57;21.40;87.80
11399;DHT22;5755;48.116;11.608;2022-07-23T07:21:25;21.50;87.00
11399;DHT22;5755;48.116;11.608;2022-07-23T07:23:51;21.50;86.50
11399;DHT22;5755;48.116;11.608;2022-07-23T07:26:18;21.50;86.80
11399;DHT22;5755;48.116;11.608;2022-07-23T07:28:46;21.70;83.90
11399;DHT22;5755;48.116;11.608;2022-07-23T07:31:13;21.80;85.10
11399;DHT22;5755;48.116;11.608;2022-07-23T07:33:43;22.00;82.90
11399;DHT22;5755;48.116;11.608;2022-07-23T07:36:10;22.10;82.30
11399;DHT22;5755;48.116;11.608;2022-07-23T07:38:36;22.20;82.40
11399;DHT22;5755;48.116;11.608;2022-07-23T07:41:03;22.20;80.30
11399;DHT22;5755;48.116;11.608;2022-07-23T07:43:30;22.30;78.50
11399;DHT22;5755;48.116;11.608;2022-07-23T07:45:58;22.20;79.90
11399;DHT22;5755;48.116;11.608;2022-07-23T07:48:25;22.10;80.20
11399;DHT22;5755;48.116;11.608;2022-07-23T07:50:53;22.00;82.20
11399;DHT22;5755;48.116;11.608;2022-07-23T07:53:20;21.80;82.10
11399;DHT22;5755;48.116;11.608;2022-07-23T07:55:47;21.60;84.20
11399;DHT22;5755;48.116;11.608;2022-07-23T07:58:14;21.60;85.40
11399;DHT22;5755;48.116;11.608;2022-07-23T08:00:41;21.60;85.90
11399;DHT22;5755;48.116;11.608;2022-07-23T08:03:08;21.60;85.20
11399;DHT22;5755;48.116;11.608;2022-07-23T08:05:34;21.70;84.30
11399;DHT22;5755;48.116;11.608;2022-07-23T08:08:04;21.70;85.20
11399;DHT22;5755;48.116;11.608;2022-07-23T08:10:31;21.70;84.80
11399;DHT22;5755;48.116;11.608;2022-07-23T08:12:58;21.70;82.10
11399;DHT22;5755;48.116;11.608;2022-07-23T08:15:27;21.70;84.30
11399;DHT22;5755;48.116;11.608;2022-07-23T08:17:55;21.80;82.10
11399;DHT22;5755;48.116;11.608;2022-07-23T08:20:23;21.90;82.10
11399;DHT22;5755;48.116;11.608;2022-07-23T08:22:52;21.90;82.20
11399;DHT22;5755;48.116;11.608;2022-07-23T08:25:23;22.10;80.10
11399;DHT22;5755;48.116;11.608;2022-07-23T08:27:51;22.10;78.70
11399;DHT22;5755;48.116;11.608;2022-07-23T08:30:18;22.20;78.60
11399;DHT22;5755;48.116;11.608;2022-07-23T08:32:53;22.30;75.80
11399;DHT22;5755;48.116;11.608;2022-07-23T08:35:27;22.40;75.10
11399;DHT22;5755;48.116;11.608;2022-07-23T08:38:00;22.30;76.80
11399;DHT22;5755;48.116;11.608;2022-07-23T08:40:43;22.40;77.40
11399;DHT22;5755;48.116;11.608;2022-07-23T08:43:12;22.40;77.60
11399;DHT22;5755;48.116;11.608;2022-07-23T08:45:54;22.60;75.40
11399;DHT22;5755;48.116;11.608;2022-07-23T08:48:23;22.80;75.80
11399;DHT22;5755;48.116;11.608;2022-07-23T08:51:00;23.00;72.90
11399;DHT22;5755;48.116;11.608;2022-07-23T08:53:40;23.20;65.80
11399;DHT22;5755;48.116;11.608;2022-07-23T08:56:12;23.50;65.90
11399;DHT22;5755;48.116;11.608;2022-07-23T09:02:22;23.50;64.50
11399;DHT22;5755;48.116;11.608;2022-07-23T09:08:12;23.20;66.00
11399;DHT22;5755;48.116;11.608;2022-07-23T09:10:51;23.10;71.10
11399;DHT22;5755;48.116;11.608;2022-07-23T09:13:32;22.90;66.90
11399;DHT22;5755;48.116;11.608;2022-07-23T09:16:01;22.90;70.90
11399;DHT22;5755;48.116;11.608;2022-07-23T09:18:30;22.90;70.40
11399;DHT22;5755;48.116;11.608;2022-07-23T09:21:14;22.90;69.70
11399;DHT22;5755;48.116;11.608;2022-07-23T09:23:49;22.90;66.70
11399;DHT22;5755;48.116;11.608;2022-07-23T09:26:35;23.30;63.80
11399;DHT22;5755;48.116;11.608;2022-07-23T09:29:30;23.50;62.30
11399;DHT22;5755;48.116;11.608;2022-07-23T09:32:21;23.80;59.40
11399;DHT22;5755;48.116;11.608;2022-07-23T09:34:52;24.00;59.50
11399;DHT22;5755;48.116;11.608;2022-07-23T09:37:28;24.30;58.30
11399;DHT22;5755;48.116;11.608;2022-07-23T09:40:04;25.10;50.50
11399;DHT22;5755;48.116;11.608;2022-07-23T09:42:54;25.90;45.50
11399;DHT22;5755;48.116;11.608;2022-07-23T09:45:30;27.20;37.60
11399;DHT22;5755;48.116;11.608;2022-07-23T09:48:10;28.70;27.50
11399;DHT22;5755;48.116;11.608;2022-07-23T09:50:38;29.90;24.50
11399;DHT22;5755;48.116;11.608;2022-07-23T09:53:23;30.00;22.70
11399;DHT22;5755;48.116;11.608;2022-07-23T09:55:51;30.00;21.60
11399;DHT22;5755;48.116;11.608;2022-07-23T09:58:21;30.10;23.50
11399;DHT22;5755;48.116;11.608;2022-07-23T10:00:52;30.40;20.70
11399;DHT22;5755;48.116;11.608;2022-07-23T10:03:20;31.00;20.40
11399;DHT22;5755;48.116;11.608;2022-07-23T10:05:48;32.20;17.60
11399;DHT22;5755;48.116;11.608;2022-07-23T10:08:18;31.90;17.50
11399;DHT22;5755;48.116;11.608;2022-07-23T10:10:46;32.60;15.90
11399;DHT22;5755;48.116;11.608;2022-07-23T10:13:14;33.20;15.60
11399;DHT22;5755;48.116;11.608;2022-07-23T10:16:08;33.00;15.90
11399;DHT22;5755;48.116;11.608;2022-07-23T10:18:36;32.40;16.10
11399;DHT22;5755;48.116;11.608;2022-07-23T10:21:06;32.00;14.60
11399;DHT22;5755;48.116;11.608;2022-07-23T10:23:37;31.50;15.40
11399;DHT22;5755;48.116;11.608;2022-07-23T10:26:10;30.80;17.00
11399;DHT22;5755;48.116;11.608;2022-07-23T10:29:00;30.50;16.90
11399;DHT22;5755;48.116;11.608;2022-07-23T10:31:38;30.40;16.80
11399;DHT22;5755;48.116;11.608;2022-07-23T10:34:14;31.10;17.10
11399;DHT22;5755;48.116;11.608;2022-07-23T10:36:48;31.60;16.40
11399;DHT22;5755;48.116;11.608;2022-07-23T10:39:20;32.50;14.10
11399;DHT22;5755;48.116;11.608;2022-07-23T10:41:48;32.00;15.00
11399;DHT22;5755;48.116;11.608;2022-07-23T10:44:17;31.40;16.30
11399;DHT22;5755;48.116;11.608;2022-07-23T10:46:57;30.80;17.00
11399;DHT22;5755;48.116;11.608;2022-07-23T10:49:40;30.10;16.70
11399;DHT22;5755;48.116;11.608;2022-07-23T10:52:21;29.40;16.30
11399;DHT22;5755;48.116;11.608;2022-07-23T10:54:54;29.10;18.80
11399;DHT22;5755;48.116;11.608;2022-07-23T10:57:22;28.90;19.20
11399;DHT22;5755;48.116;11.608;2022-07-23T11:00:17;28.60;19.60
11399;DHT22;5755;48.116;11.608;2022-07-23T11:02:49;28.10;20.00
11399;DHT22;5755;48.116;11.608;2022-07-23T11:05:18;27.90;20.70
11399;DHT22;5755;48.116;11.608;2022-07-23T11:08:14;28.00;21.80
11399;DHT22;5755;48.116;11.608;2022-07-23T11:10:49;28.00;19.50
11399;DHT22;5755;48.116;11.608;2022-07-23T11:13:36;27.80;21.80
11399;DHT22;5755;48.116;11.608;2022-07-23T11:16:25;27.60;22.10
11399;DHT22;5755;48.116;11.608;2022-07-23T11:19:17;27.60;21.50
11399;DHT22;5755;48.116;11.608;2022-07-23T11:21:48;27.50;23.00
11399;DHT22;5755;48.116;11.608;2022-07-23T11:24:22;27.50;22.70
11399;DHT22;5755;48.116;11.608;2022-07-23T11:27:16;27.40;22.90
11399;DHT22;5755;48.116;11.608;2022-07-23T11:30:36;27.20;22.20
11399;DHT22;5755;48.116;11.608;2022-07-23T11:33:25;27.00;23.80
11399;DHT22;5755;48.116;11.608;2022-07-23T11:42:38;26.50;25.40
11399;DHT22;5755;48.116;11.608;2022-07-23T11:45:10;26.30;25.80
11399;DHT22;5755;48.116;11.608;2022-07-23T11:47:37;26.10;26.00
11399;DHT22;5755;48.116;11.608;2022-07-23T11:50:06;26.10;26.20
11399;DHT22;5755;48.116;11.608;2022-07-23T11:52:34;25.90;27.80
11399;DHT22;5755;48.116;11.608;2022-07-23T11:55:06;25.80;28.00
11399;DHT22;5755;48.116;11.608;2022-07-23T11:57:36;25.70;28.30
11399;DHT22;5755;48.116;11.608;2022-07-23T12:00:08;25.60;28.30
11399;DHT22;5755;48.116;11.608;2022-07-23T12:02:36;25.70;29.60
11399;DHT22;5755;48.116;11.608;2022-07-23T12:05:04;25.70;28.80
11399;DHT22;5755;48.116;11.608;2022-07-23T12:07:41;25.70;29.30
11399;DHT22;5755;48.116;11.608;2022-07-23T12:10:14;25.70;29.70
11399;DHT22;5755;48.116;11.608;2022-07-23T12:12:49;25.70;30.30
11399;DHT22;5755;48.116;11.608;2022-07-23T12:15:20;25.80;29.60
11399;DHT22;5755;48.116;11.608;2022-07-23T12:17:49;25.80;30.70
11399;DHT22;5755;48.116;11.608;2022-07-23T12:20:24;25.60;31.20
11399;DHT22;5755;48.116;11.608;2022-07-23T12:22:52;25.60;32.80
11399;DHT22;5755;48.116;11.608;2022-07-23T12:25:20;25.50;33.30
11399;DHT22;5755;48.116;11.608;2022-07-23T12:27:59;25.40;34.20
11399;DHT22;5755;48.116;11.608;2022-07-23T12:30:30;25.50;33.40
11399;DHT22;5755;48.116;11.608;2022-07-23T12:32:58;25.50;32.90
11399;DHT22;5755;48.116;11.608;2022-07-23T12:35:32;25.40;33.30
11399;DHT22;5755;48.116;11.608;2022-07-23T12:38:06;25.30;34.50
11399;DHT22;5755;48.116;11.608;2022-07-23T12:40:36;25.30;34.10
11399;DHT22;5755;48.116;11.608;2022-07-23T12:43:04;25.20;35.20
11399;DHT22;5755;48.116;11.608;2022-07-23T12:45:47;25.10;36.30
11399;DHT22;5755;48.116;11.608;2022-07-23T12:48:23;25.20;36.30
11399;DHT22;5755;48.116;11.608;2022-07-23T12:54:03;25.30;35.10
11399;DHT22;5755;48.116;11.608;2022-07-23T12:56:44;25.20;34.20
11399;DHT22;5755;48.116;11.608;2022-07-23T12:59:22;25.10;36.30
11399;DHT22;5755;48.116;11.608;2022-07-23T13:02:00;25.00;36.20
11399;DHT22;5755;48.116;11.608;2022-07-23T13:04:27;25.00;36.20
11399;DHT22;5755;48.116;11.608;2022-07-23T13:07:04;24.90;36.20
11399;DHT22;5755;48.116;11.608;2022-07-23T13:09:33;25.10;36.30
11399;DHT22;5755;48.116;11.608;2022-07-23T13:12:00;25.30;36.40
11399;DHT22;5755;48.116;11.608;2022-07-23T13:14:29;25.50;34.30
11399;DHT22;5755;48.116;11.608;2022-07-23T13:16:56;25.70;33.00
11399;DHT22;5755;48.116;11.608;2022-07-23T13:19:24;25.90;32.20
11399;DHT22;5755;48.116;11.608;2022-07-23T13:21:52;25.90;32.20
11399;DHT22;5755;48.116;11.608;2022-07-23T13:24:22;25.80;31.30
11399;DHT22;5755;48.116;11.608;2022-07-23T13:26:49;25.80;32.40
11399;DHT22;5755;48.116;11.608;2022-07-23T13:29:17;25.70;32.20
11399;DHT22;5755;48.116;11.608;2022-07-23T13:31:44;25.60;33.80
11399;DHT22;5755;48.116;11.608;2022-07-23T13:34:16;25.60;34.80
11399;DHT22;5755;48.116;11.608;2022-07-23T13:36:45;25.50;34.70
11399;DHT22;5755;48.116;11.608;2022-07-23T13:39:12;25.60;34.20
11399;DHT22;5755;48.116;11.608;2022-07-23T13:41:39;25.60;35.00
11399;DHT22;5755;48.116;11.608;2022-07-23T13:44:10;25.50;36.70
11399;DHT22;5755;48.116;11.608;2022-07-23T13:46:37;25.40;36.40
11399;DHT22;5755;48.116;11.608;2022-07-23T13:49:04;25.50;36.50
11399;DHT22;5755;48.116;11.608;2022-07-23T13:51:31;25.70;38.00
11399;DHT22;5755;48.116;11.608;2022-07-23T13:53:59;25.90;35.20
11399;DHT22;5755;48.116;11.608;2022-07-23T13:56:28;26.10;34.50
11399;DHT22;5755;48.116;11.608;2022-07-23T13:58:54;26.10;32.30
11399;DHT22;5755;48.116;11.608;2022-07-23T14:01:21;25.90;32.60
11399;DHT22;5755;48.116;11.608;2022-07-23T14:03:48;25.70;33.70
11399;DHT22;5755;48.116;11.608;2022-07-23T14:06:15;25.70;33.20
11399;DHT22;5755;48.116;11.608;2022-07-23T14:08:42;25.60;33.60
11399;DHT22;5755;48.116;11.608;2022-07-23T14:11:18;25.40;34.40
11399;DHT22;5755;48.116;11.608;2022-07-23T14:13:45;25.30;36.40
11399;DHT22;5755;48.116;11.608;2022-07-23T14:16:11;25.30;36.40
11399;DHT22;5755;48.116;11.608;2022-07-23T14:18:38;25.20;36.30
11399;DHT22;5755;48.116;11.608;2022-07-23T14:21:05;25.10;41.50
11399;DHT22;5755;48.116;11.608;2022-07-23T14:23:32;24.90;44.60
11399;DHT22;5755;48.116;11.608;2022-07-23T14:25:59;24.80;45.00
11399;DHT22;5755;48.116;11.608;2022-07-23T14:28:27;24.80;44.60
11399;DHT22;5755;48.116;11.608;2022-07-23T14:30:58;24.70;44.80
11399;DHT22;5755;48.116;11.608;2022-07-23T14:33:26;24.80;44.00
11399;DHT22;5755;48.116;11.608;2022-07-23T14:35:52;24.90;43.80
11399;DHT22;5755;48.116;11.608;2022-07-23T14:38:22;24.90;47.30
11399;DHT22;5755;48.116;11.608;2022-07-23T14:40:49;24.80;44.60
11399;DHT22;5755;48.116;11.608;2022-07-23T14:43:16;24.90;45.10
11399;DHT22;5755;48.116;11.608;2022-07-23T14:45:44;24.90;41.60
11399;DHT22;5755;48.116;11.608;2022-07-23T14:48:11;25.10;44.80
11399;DHT22;5755;48.116;11.608;2022-07-23T14:50:38;25.10;44.00
11399;DHT22;5755;48.116;11.608;2022-07-23T14:53:05;25.20;44.90
11399;DHT22;5755;48.116;11.608;2022-07-23T14:55:33;25.30;40.50
11399;DHT22;5755;48.116;11.608;2022-07-23T14:58:00;25.40;40.60
11399;DHT22;5755;48.116;11.608;2022-07-23T15:00:27;25.40;42.10
11399;DHT22;5755;48.116;11.608;2022-07-23T15:02:58;25.70;38.90
11399;DHT22;5755;48.116;11.608;2022-07-23T15:05:24;25.70;39.80
11399;DHT22;5755;48.116;11.608;2022-07-23T15:07:51;25.60;36.60
11399;DHT22;5755;48.116;11.608;2022-07-23T15:10:18;25.70;36.70
11399;DHT22;5755;48.116;11.608;2022-07-23T15:12:45;25.50;38.30
11399;DHT22;5755;48.116;11.608;2022-07-23T15:15:12;25.40;38.00
11399;DHT22;5755;48.116;11.608;2022-07-23T15:17:39;25.30;39.30
11399;DHT22;5755;48.116;11.608;2022-07-23T15:20:09;25.40;39.90
11399;DHT22;5755;48.116;11.608;2022-07-23T15:22:40;25.40;38.30
11399;DHT22;5755;48.116;11.608;2022-07-23T15:25:08;25.60;38.00
11399;DHT22;5755;48.116;11.608;2022-07-23T15:27:34;25.60;36.60
11399;DHT22;5755;48.116;11.608;2022-07-23T15:30:01;25.80;36.70
11399;DHT22;5755;48.116;11.608;2022-07-23T15:32:28;25.90;37.40
11399;DHT22;5755;48.116;11.608;2022-07-23T15:34:55;25.90;36.80
11399;DHT22;5755;48.116;11.608;2022-07-23T15:37:24;25.90;38.20
11399;DHT22;5755;48.116;11.608;2022-07-23T15:39:50;25.80;37.50
11399;DHT22;5755;48.116;11.608;2022-07-23T15:42:17;25.90;38.70
11399;DHT22;5755;48.116;11.608;2022-07-23T15:44:44;25.80;38.30
11399;DHT22;5755;48.116;11.608;2022-07-23T15:47:13;25.70;37.90
11399;DHT22;5755;48.116;11.608;2022-07-23T15:49:40;25.60;39.00
11399;DHT22;5755;48.116;11.608;2022-07-23T15:52:07;25.70;37.10
11399;DHT22;5755;48.116;11.608;2022-07-23T15:54:36;25.80;38.30
11399;DHT22;5755;48.116;11.608;2022-07-23T15:57:05;26.00;36.80
11399;DHT22;5755;48.116;11.608;2022-07-23T15:59:32;26.10;37.00
11399;DHT22;5755;48.116;11.608;2022-07-23T16:01:58;26.00;36.70
11399;DHT22;5755;48.116;11.608;2022-07-23T16:04:25;26.00;36.80